Time;durP1;ratioP1;P1;durP2;ratioP2;P2;SDS_P1;SDS_P2;PMS_P1;PMS_P2;Temp;Humidity;BMP_temperature;BMP_pressure;BME280_temperature;BME280_humidity;BME280_pressure;Samples;Min_cycle;Max_cycle;Signal;HPM_P1;HPM_P2
2022/07/06 00:00:07;;;;;;;3.60;0.55;;;;;;;15.45;80.47;102570.28;5014965;28;20133;-36
2022/07/06 00:02:35;;;;;;;1.65;0.40;;;;;;;15.45;80.29;102571.13;5013811;28;20061;-30
2022/07/06 00:05:03;;;;;;;2.97;0.50;;;;;;;15.46;80.08;102558.75;5014640;28;20058;-29
2022/07/06 00:07:31;;;;;;;3.38;0.50;;;;;;;15.48;79.70;102566.91;5014396;28;20434;-31
2022/07/06 00:09:59;;;;;;;1.38;0.28;;;;;;;15.48;79.64;102566.91;5013605;28;20517;-33
2022/07/06 00:12:27;;;;;;;3.55;0.43;;;;;;;15.48;79.76;102564.94;5014678;28;20145;-29
2022/07/06 00:14:56;;;;;;;2.80;0.50;;;;;;;15.49;79.62;102563.81;5014371;28;20153;-34
2022/07/06 00:17:24;;;;;;;1.48;0.40;;;;;;;15.49;79.55;102563.81;5013600;28;20057;-29
2022/07/06 00:19:52;;;;;;;3.42;0.38;;;;;;;15.49;79.29;102562.97;5014326;28;20049;-29
2022/07/06 00:22:19;;;;;;;1.08;0.20;;;;;;;15.51;79.04;102557.88;5014338;28;20050;-32
2022/07/06 00:24:47;;;;;;;2.30;0.50;;;;;;;15.52;78.78;102565.19;5013224;28;20069;-29
2022/07/06 00:27:15;;;;;;;1.45;0.40;;;;;;;15.52;78.87;102568.84;5014478;28;20180;-35
2022/07/06 00:29:43;;;;;;;3.63;0.52;;;;;;;15.54;78.73;102567.72;5013064;28;20088;-37
2022/07/06 00:32:13;;;;;;;1.35;0.38;;;;;;;15.54;78.72;102562.09;5014573;28;20072;-39
2022/07/06 00:34:42;;;;;;;1.73;0.43;;;;;;;15.56;78.64;102560.72;5012670;28;20046;-35
2022/07/06 00:37:10;;;;;;;3.88;0.50;;;;;;;15.56;78.30;102563.53;5013672;28;20141;-29
2022/07/06 00:39:38;;;;;;;2.25;0.40;;;;;;;15.57;78.32;102562.38;5013683;28;20422;-30
2022/07/06 00:42:07;;;;;;;1.60;0.40;;;;;;;15.58;78.27;102564.06;5014230;28;20100;-30
2022/07/06 00:44:35;;;;;;;1.27;0.40;;;;;;;15.59;78.23;102557.28;5012771;28;20526;-31
2022/07/06 00:47:03;;;;;;;3.67;0.40;;;;;;;15.59;77.93;102550.84;5013284;28;20077;-29
2022/07/06 00:52:18;;;;;;;2.33;0.40;;;;;;;15.61;78.08;102565.44;5011815;28;20144;-29
2022/07/06 00:54:47;;;;;;;1.95;0.40;;;;;;;15.62;78.09;102561.50;5013482;28;20096;-31
2022/07/06 00:57:15;;;;;;;1.42;0.30;;;;;;;15.61;78.13;102563.47;4994377;28;20061;-29
2022/07/06 00:59:44;;;;;;;2.13;0.32;;;;;;;15.63;78.35;102568.81;5002863;28;20459;-29
2022/07/06 01:02:11;;;;;;;2.47;0.60;;;;;;;15.65;78.69;102572.16;5013713;28;20084;-29
2022/07/06 01:04:41;;;;;;;2.05;0.30;;;;;;;15.68;78.75;102560.34;5013328;28;20050;-31
2022/07/06 01:07:09;;;;;;;1.98;0.22;;;;;;;15.68;78.53;102560.34;4998152;28;20074;-29
2022/07/06 01:09:37;;;;;;;2.25;0.40;;;;;;;15.69;78.51;102562.84;5013519;28;20042;-31
2022/07/06 01:12:08;;;;;;;1.70;0.50;;;;;;;15.70;78.35;102555.25;5012609;28;20045;-35
2022/07/06 01:14:37;;;;;;;3.17;0.45;;;;;;;15.70;78.73;102560.88;5023269;28;20069;-31
2022/07/06 01:17:08;;;;;;;1.85;0.47;;;;;;;15.68;79.03;102564.00;4999312;28;20085;-32
2022/07/06 01:19:36;;;;;;;2.47;0.50;;;;;;;15.69;80.02;102559.19;5011062;28;20153;-29
2022/07/06 01:22:05;;;;;;;3.05;0.35;;;;;;;15.70;81.27;102555.25;5012981;28;20054;-29
2022/07/06 01:24:35;;;;;;;2.97;0.40;;;;;;;15.71;82.31;102559.75;5012612;28;20058;-30
2022/07/06 01:27:05;;;;;;;2.08;0.35;;;;;;;15.70;83.15;102553.28;5007290;28;20058;-30
2022/07/06 01:29:33;;;;;;;3.85;0.50;;;;;;;15.69;83.41;102553.56;5011856;28;20141;-30
2022/07/06 01:32:02;;;;;;;3.10;0.75;;;;;;;15.68;83.46;102552.72;5012724;28;20489;-29
2022/07/06 01:34:29;;;;;;;3.22;0.43;;;;;;;15.67;83.78;102551.03;5012233;28;20049;-30
2022/07/06 01:36:57;;;;;;;2.05;0.50;;;;;;;15.67;84.02;102545.41;5012817;28;20048;-30
2022/07/06 01:39:26;;;;;;;2.15;0.32;;;;;;;15.66;83.60;102549.38;5013008;28;20054;-31
2022/07/06 01:41:54;;;;;;;2.65;0.50;;;;;;;15.66;83.53;102549.38;5006849;28;20509;-30
2022/07/06 01:44:22;;;;;;;3.30;0.50;;;;;;;15.66;83.41;102543.72;5017924;28;20141;-29
2022/07/06 01:46:50;;;;;;;2.83;0.57;;;;;;;15.68;83.87;102544.28;5002080;28;20206;-33
2022/07/06 01:49:17;;;;;;;3.42;0.60;;;;;;;15.69;83.82;102547.94;5003851;28;20064;-29
2022/07/06 01:51:46;;;;;;;2.53;0.47;;;;;;;15.69;83.80;102547.94;5001965;28;20050;-39
2022/07/06 01:54:14;;;;;;;2.55;0.47;;;;;;;15.68;83.49;102541.47;5000547;28;20052;-34
2022/07/06 01:56:43;;;;;;;2.25;0.40;;;;;;;15.67;83.11;102542.59;5012242;28;20069;-35
2022/07/06 01:59:12;;;;;;;2.58;0.50;;;;;;;15.66;82.47;102540.06;5012622;28;20065;-37
2022/07/06 02:01:40;;;;;;;2.88;0.55;;;;;;;15.64;82.05;102546.00;5010148;28;20045;-36
2022/07/06 02:04:08;;;;;;;2.88;0.60;;;;;;;15.61;81.50;102551.38;5012608;28;20042;-34
2022/07/06 02:06:36;;;;;;;1.73;0.43;;;;;;;15.60;80.84;102552.50;5011024;28;20373;-38
2022/07/06 02:09:04;;;;;;;3.10;0.47;;;;;;;15.58;80.50;102550.00;5011641;28;20048;-33
2022/07/06 02:11:33;;;;;;;2.85;0.40;;;;;;;15.55;79.94;102559.00;5012184;28;20159;-35
2022/07/06 02:14:02;;;;;;;1.00;0.20;;;;;;;15.54;79.58;102551.69;5010510;28;20042;-34
2022/07/06 02:16:30;;;;;;;2.72;0.40;;;;;;;15.47;78.65;102549.19;5011621;28;20038;-35
2022/07/06 02:18:58;;;;;;;3.67;0.40;;;;;;;15.44;78.20;102551.72;5011866;28;20148;-33
2022/07/06 02:21:28;;;;;;;2.08;0.43;;;;;;;15.38;77.21;102550.94;5025840;28;20441;-31
2022/07/06 02:23:56;;;;;;;2.08;0.30;;;;;;;15.32;76.56;102546.47;5009329;28;20104;-35
2022/07/06 02:26:24;;;;;;;2.38;0.43;;;;;;;15.28;76.13;102558.59;5009701;28;20042;-33
2022/07/06 02:28:53;;;;;;;2.58;0.35;;;;;;;15.22;75.97;102563.38;4995962;28;20050;-37
2022/07/06 02:31:22;;;;;;;1.98;0.40;;;;;;;15.18;75.38;102558.66;5006203;28;20057;-35
2022/07/06 02:33:50;;;;;;;1.45;0.38;;;;;;;15.12;75.78;102552.19;5010613;28;20050;-30
2022/07/06 02:36:19;;;;;;;1.48;0.30;;;;;;;15.07;75.72;102550.25;5009303;28;20104;-33
2022/07/06 02:38:46;;;;;;;3.08;0.40;;;;;;;15.04;76.36;102549.97;5011475;28;20109;-32
2022/07/06 02:41:16;;;;;;;1.60;0.30;;;;;;;15.00;76.86;102546.91;5010514;28;20093;-31
2022/07/06 02:43:44;;;;;;;2.20;0.30;;;;;;;14.96;77.69;102553.41;5009322;28;20050;-34
2022/07/06 02:46:12;;;;;;;2.72;0.30;;;;;;;14.92;78.38;102552.28;5010152;28;20384;-29
2022/07/06 02:48:43;;;;;;;2.13;0.43;;;;;;;14.86;78.95;102540.22;5010042;28;20108;-33
2022/07/06 02:51:11;;;;;;;2.08;0.45;;;;;;;14.81;79.70;102543.03;5006502;28;20403;-31
2022/07/06 02:53:39;;;;;;;2.38;0.60;;;;;;;14.75;79.97;102547.88;5002015;28;20426;-37
2022/07/06 02:56:07;;;;;;;2.95;0.82;;;;;;;14.72;80.02;102550.41;5002778;28;20808;-33
2022/07/06 02:58:36;;;;;;;2.92;0.50;;;;;;;14.67;80.47;102548.44;4999884;28;20141;-30
2022/07/06 03:01:04;;;;;;;1.33;0.40;;;;;;;14.63;80.50;102547.31;5011592;28;20563;-34
2022/07/06 03:03:34;;;;;;;1.63;0.40;;;;;;;14.61;80.59;102554.34;5005886;28;20517;-29
2022/07/06 03:06:03;;;;;;;2.60;0.60;;;;;;;14.58;80.42;102550.16;5009260;28;20484;-29
2022/07/06 03:08:34;;;;;;;2.67;0.50;;;;;;;14.56;80.36;102545.97;5011497;28;20491;-30
2022/07/06 03:11:02;;;;;;;2.35;0.55;;;;;;;14.52;80.48;102548.50;5013727;28;20052;-29
2022/07/06 03:13:30;;;;;;;1.60;0.40;;;;;;;14.49;80.56;102551.88;5015724;28;20042;-32
2022/07/06 03:16:00;;;;;;;1.77;0.40;;;;;;;14.46;81.18;102547.66;5016265;28;20090;-29
2022/07/06 03:18:30;;;;;;;2.35;0.57;;;;;;;14.46;81.54;102558.03;5015892;28;20057;-31
2022/07/06 03:20:58;;;;;;;4.00;0.55;;;;;;;14.44;82.07;102547.09;5016633;28;20475;-29
2022/07/06 03:23:27;;;;;;;2.55;0.82;;;;;;;14.43;82.39;102542.59;5016758;28;20145;-31
2022/07/06 03:25:55;;;;;;;1.80;0.47;;;;;;;14.41;82.99;102536.41;5016209;28;20491;-29
2022/07/06 03:28:23;;;;;;;1.83;0.40;;;;;;;14.41;83.15;102542.03;5013520;28;20078;-29
2022/07/06 03:30:52;;;;;;;1.90;0.40;;;;;;;14.38;83.13;102551.03;5015330;28;20052;-30
2022/07/06 03:33:21;;;;;;;2.60;0.40;;;;;;;14.37;83.34;102549.34;5011853;28;20068;-30
2022/07/06 03:35:49;;;;;;;1.92;0.50;;;;;;;14.36;83.68;102552.44;5013348;28;20117;-32
2022/07/06 03:38:17;;;;;;;2.38;0.50;;;;;;;14.36;84.21;102552.44;5016494;28;20061;-29
2022/07/06 03:40:47;;;;;;;1.73;0.57;;;;;;;14.35;84.63;102553.56;5015441;28;20071;-29
2022/07/06 03:43:15;;;;;;;3.88;0.60;;;;;;;14.35;84.63;102556.34;5016238;28;20057;-28
2022/07/06 03:45:44;;;;;;;3.85;0.50;;;;;;;14.34;84.77;102549.06;5005693;28;20059;-28
2022/07/06 03:48:12;;;;;;;2.65;0.63;;;;;;;14.32;85.08;102554.13;5007343;28;20050;-29
2022/07/06 03:50:41;;;;;;;2.90;0.50;;;;;;;14.33;85.37;102561.41;5016085;28;20159;-30
2022/07/06 03:53:10;;;;;;;1.83;0.50;;;;;;;14.34;85.79;102560.28;5005935;28;20045;-28
2022/07/06 03:55:38;;;;;;;1.85;0.40;;;;;;;14.34;85.92;102574.34;5014905;28;20132;-30
2022/07/06 03:58:10;;;;;;;1.85;0.50;;;;;;;14.35;86.23;102567.59;5015155;28;20083;-29
2022/07/06 04:00:40;;;;;;;0.88;0.50;;;;;;;14.34;86.17;102569.56;5016813;28;20125;-29
2022/07/06 04:03:14;;;;;;;3.03;0.50;;;;;;;14.36;86.66;102563.66;5009507;28;20086;-28
2022/07/06 04:05:47;;;;;;;2.63;0.30;;;;;;;14.39;87.21;102563.06;5004621;28;20046;-30
2022/07/06 04:08:15;;;;;;;2.55;0.52;;;;;;;14.40;86.88;102560.00;5009717;28;20046;-30
2022/07/06 04:10:50;;;;;;;1.80;0.35;;;;;;;14.40;87.33;102560.00;5003568;28;20137;-28
2022/07/06 04:13:19;;;;;;;1.73;0.40;;;;;;;14.42;87.33;102556.91;5017530;28;20050;-28
2022/07/06 04:15:47;;;;;;;3.83;0.47;;;;;;;14.45;87.53;102556.34;5010628;28;20046;-30
2022/07/06 04:18:15;;;;;;;1.73;0.40;;;;;;;14.48;87.71;102556.63;5015407;28;20049;-31
2022/07/06 04:20:48;;;;;;;1.92;0.73;;;;;;;14.51;88.05;102555.22;5016200;28;20046;-29
2022/07/06 04:23:18;;;;;;;2.55;0.45;;;;;;;14.54;87.84;102563.09;5022713;28;20129;-31
2022/07/06 04:25:46;;;;;;;2.92;0.60;;;;;;;14.56;88.02;102566.47;5012948;28;20050;-30
2022/07/06 04:28:14;;;;;;;3.63;0.63;;;;;;;14.58;87.39;102564.22;5000522;28;20176;-30
2022/07/06 04:30:44;;;;;;;4.95;0.60;;;;;;;14.62;87.88;102561.66;4994510;28;20082;-28
2022/07/06 04:33:16;;;;;;;2.13;0.30;;;;;;;14.65;88.05;102563.91;5001937;28;20050;-29
2022/07/06 04:35:45;;;;;;;2.72;0.57;;;;;;;14.68;88.41;102558.56;4993232;28;20096;-29
2022/07/06 04:38:13;;;;;;;2.35;0.47;;;;;;;14.73;88.84;102560.50;5011779;28;20103;-29
2022/07/06 04:40:42;;;;;;;3.22;0.32;;;;;;;14.76;88.83;102557.97;5005032;28;20057;-29
2022/07/06 04:43:14;;;;;;;2.03;0.60;;;;;;;14.78;89.08;102557.69;5010578;28;20050;-30
2022/07/06 04:45:44;;;;;;;2.42;0.88;;;;;;;14.80;89.12;102558.22;5012731;28;20057;-29
2022/07/06 04:48:12;;;;;;;2.22;0.50;;;;;;;14.82;89.38;102555.97;5001769;28;20141;-29
2022/07/06 04:50:39;;;;;;;2.83;0.50;;;;;;;14.87;89.31;102569.16;5006169;28;20066;-28
2022/07/06 04:53:12;;;;;;;2.38;0.50;;;;;;;14.91;89.39;102571.13;5013558;28;20041;-30
2022/07/06 04:55:41;;;;;;;4.15;0.43;;;;;;;14.95;89.10;102571.41;5009493;28;20113;-29
2022/07/06 04:58:09;;;;;;;2.67;0.40;;;;;;;14.98;88.75;102568.88;5005238;28;20042;-30
2022/07/06 05:00:37;;;;;;;3.28;0.60;;;;;;;15.05;89.07;102576.97;5009233;28;20046;-30
2022/07/06 05:03:07;;;;;;;3.00;0.60;;;;;;;15.12;89.58;102572.72;5003959;28;20074;-29
2022/07/06 05:05:35;;;;;;;1.83;0.50;;;;;;;15.21;89.20;102574.91;5011677;28;20060;-29
2022/07/06 05:08:02;;;;;;;1.55;0.40;;;;;;;15.26;88.52;102569.28;5011984;28;20077;-29
2022/07/06 05:10:31;;;;;;;2.40;0.38;;;;;;;15.30;88.07;102571.22;5017936;28;20116;-30
2022/07/06 05:12:58;;;;;;;3.58;0.50;;;;;;;15.36;87.96;102572.91;5011916;28;20046;-28
2022/07/06 05:15:28;;;;;;;3.17;0.52;;;;;;;15.44;88.60;102574.25;5022251;28;20524;-29
2022/07/06 05:17:56;;;;;;;4.93;0.55;;;;;;;15.50;88.74;102562.66;4995290;28;20046;-30
2022/07/06 05:20:25;;;;;;;2.17;0.40;;;;;;;15.61;88.78;102576.69;5010365;28;20058;-31
2022/07/06 05:22:53;;;;;;;2.90;0.40;;;;;;;15.68;88.71;102563.16;5007180;28;20061;-30
2022/07/06 05:25:25;;;;;;;2.67;0.55;;;;;;;15.75;88.86;102570.13;5009945;28;20081;-31
2022/07/06 05:27:53;;;;;;;2.10;0.40;;;;;;;15.83;88.74;102571.47;5011890;28;20351;-30
2022/07/06 05:30:21;;;;;;;3.10;0.43;;;;;;;15.90;88.87;102565.50;4998401;28;20175;-30
2022/07/06 05:32:49;;;;;;;2.95;0.45;;;;;;;15.96;88.72;102568.00;5009461;28;20140;-34
2022/07/06 05:35:17;;;;;;;2.42;0.50;;;;;;;16.01;88.73;102573.56;5011810;28;20068;-29
2022/07/06 05:38:08;;;;;;;2.17;0.32;;;;;;;16.04;88.71;102570.19;4992824;28;20116;-31
2022/07/06 05:40:36;;;;;;;1.55;0.40;;;;;;;16.06;88.06;102569.88;5018021;28;20057;-29
2022/07/06 05:43:05;;;;;;;1.13;0.35;;;;;;;16.04;87.69;102569.34;5010515;28;20053;-30
2022/07/06 05:45:32;;;;;;;2.13;0.47;;;;;;;16.02;87.03;102575.25;5010678;28;20411;-30
2022/07/06 05:50:47;;;;;;;2.17;0.43;;;;;;;16.03;86.56;102576.94;4992251;28;20141;-29
2022/07/06 05:53:16;;;;;;;2.45;0.45;;;;;;;16.06;86.19;102576.34;5009841;28;20053;-29
2022/07/06 05:55:50;;;;;;;1.58;0.38;;;;;;;16.08;86.03;102574.09;5009436;28;20141;-29
2022/07/06 05:58:19;;;;;;;2.25;0.30;;;;;;;16.14;86.16;102575.75;5007046;28;20050;-29
2022/07/06 06:00:49;;;;;;;3.28;0.50;;;;;;;16.22;85.80;102579.03;5006651;28;20065;-29
2022/07/06 06:03:19;;;;;;;2.38;0.40;;;;;;;16.27;85.00;102573.38;5006989;28;20104;-29
2022/07/06 06:05:49;;;;;;;2.00;0.40;;;;;;;16.33;85.08;102575.84;5012095;28;20076;-29
2022/07/06 06:08:20;;;;;;;1.92;0.50;;;;;;;16.43;84.92;102578.53;5004190;28;20052;-29
2022/07/06 06:10:50;;;;;;;2.10;0.40;;;;;;;16.50;84.22;102581.88;5027025;28;20092;-28
2022/07/06 06:13:20;;;;;;;1.50;0.40;;;;;;;16.58;84.06;102590.81;5007509;28;20455;-29
2022/07/06 06:15:49;;;;;;;1.52;0.30;;;;;;;16.68;84.04;102594.41;5004311;28;20046;-31
2022/07/06 06:18:18;;;;;;;1.00;0.38;;;;;;;16.75;83.93;102588.41;5011299;28;20054;-30
2022/07/06 06:20:47;;;;;;;1.42;0.30;;;;;;;16.83;83.77;102591.41;5011811;28;20092;-30
2022/07/06 06:23:16;;;;;;;2.67;0.60;;;;;;;16.91;83.47;102584.28;5009151;28;20465;-30
2022/07/06 06:25:45;;;;;;;1.77;0.35;;;;;;;17.00;82.92;102584.44;5009238;28;20041;-29
2022/07/06 06:28:13;;;;;;;2.15;0.30;;;;;;;17.09;82.18;102582.63;5011585;28;20045;-32
2022/07/06 06:30:40;;;;;;;2.60;0.40;;;;;;;17.23;81.73;102583.56;5010966;28;20052;-31
2022/07/06 06:33:10;;;;;;;1.33;0.30;;;;;;;17.41;81.81;102585.56;5012119;28;20050;-30
2022/07/06 06:35:39;;;;;;;3.10;0.50;;;;;;;17.66;81.27;102578.75;5010843;28;20096;-32
2022/07/06 06:38:07;;;;;;;2.40;0.30;;;;;;;17.88;79.73;102578.16;5011871;28;20490;-29
2022/07/06 06:40:35;;;;;;;2.50;0.40;;;;;;;18.11;78.80;102582.00;5011724;28;20509;-29
2022/07/06 06:43:04;;;;;;;0.70;0.30;;;;;;;18.55;77.36;102571.03;5010537;28;20046;-30
2022/07/06 06:45:36;;;;;;;2.97;0.40;;;;;;;19.19;75.59;102582.47;5008955;28;20129;-31
2022/07/06 06:48:04;;;;;;;1.83;0.35;;;;;;;19.87;72.88;102590.88;5012016;28;20046;-30
2022/07/06 06:50:32;;;;;;;3.33;0.57;;;;;;;20.59;70.09;102581.38;5010864;28;20052;-29
2022/07/06 06:53:00;;;;;;;2.05;0.30;;;;;;;21.34;66.35;102585.22;5011500;28;20061;-34
2022/07/06 06:55:27;;;;;;;2.25;0.47;;;;;;;21.87;63.43;102588.63;5011816;28;20045;-29
2022/07/06 06:57:55;;;;;;;1.48;0.30;;;;;;;22.32;62.42;102586.28;5010716;28;20358;-32
2022/07/06 07:00:24;;;;;;;2.33;0.30;;;;;;;23.00;61.70;102590.09;5011907;28;20455;-31
2022/07/06 07:02:52;;;;;;;2.63;0.40;;;;;;;23.68;58.48;102599.44;5011218;28;20049;-32
2022/07/06 07:05:20;;;;;;;1.60;0.20;;;;;;;24.32;55.35;102595.41;5010927;28;20053;-30
2022/07/06 07:07:48;;;;;;;2.47;0.30;;;;;;;24.82;54.39;102598.03;5011148;28;20403;-33
2022/07/06 07:10:16;;;;;;;1.45;0.40;;;;;;;25.48;52.01;102605.56;5011578;28;20046;-31
2022/07/06 07:12:44;;;;;;;2.38;0.45;;;;;;;26.05;49.79;102605.34;5010521;28;20406;-34
2022/07/06 07:15:13;;;;;;;1.17;0.22;;;;;;;26.51;48.32;102598.16;5011784;28;20049;-34
2022/07/06 07:17:42;;;;;;;1.52;0.30;;;;;;;26.90;47.07;102601.22;5010367;28;20447;-30
2022/07/06 07:20:11;;;;;;;2.45;0.40;;;;;;;27.06;46.03;102605.78;5011560;28;20075;-36
2022/07/06 07:22:39;;;;;;;0.95;0.30;;;;;;;27.11;45.68;102601.81;5011189;28;20452;-30
2022/07/06 07:25:07;;;;;;;1.77;0.30;;;;;;;27.29;44.33;102591.63;5011090;28;20057;-34
2022/07/06 07:27:35;;;;;;;1.45;0.30;;;;;;;27.56;44.19;102589.81;5011104;28;20053;-31
2022/07/06 07:30:04;;;;;;;0.82;0.30;;;;;;;27.94;42.86;102594.81;5011535;28;20038;-36
2022/07/06 07:32:32;;;;;;;1.42;0.30;;;;;;;28.05;42.13;102595.03;5010482;28;20049;-32
2022/07/06 07:35:02;;;;;;;0.70;0.30;;;;;;;27.89;42.44;102592.25;5011166;28;20046;-37
2022/07/06 07:37:30;;;;;;;4.88;0.40;;;;;;;27.63;42.20;102590.00;5011136;28;20057;-30
2022/07/06 07:39:58;;;;;;;0.65;0.20;;;;;;;27.14;43.14;102583.88;5010453;28;20049;-32
2022/07/06 07:42:26;;;;;;;1.73;0.35;;;;;;;26.64;43.61;102584.56;4995232;28;20420;-39
2022/07/06 07:44:54;;;;;;;1.17;0.28;;;;;;;26.33;44.54;102586.19;5011125;28;20049;-38
2022/07/06 07:47:22;;;;;;;1.45;0.30;;;;;;;26.04;44.97;102592.25;5010357;28;20050;-33
2022/07/06 07:49:50;;;;;;;1.40;0.30;;;;;;;25.92;44.97;102580.84;5011136;28;20075;-30
2022/07/06 07:52:19;;;;;;;0.77;0.25;;;;;;;26.03;44.97;102593.44;5011452;28;20050;-33
2022/07/06 07:54:46;;;;;;;0.98;0.20;;;;;;;26.09;44.18;102589.13;5009866;28;20060;-35
2022/07/06 07:57:34;;;;;;;1.58;0.40;;;;;;;25.62;45.67;102586.88;4994517;28;20379;-30
2022/07/06 08:00:02;;;;;;;1.55;0.40;;;;;;;25.65;45.45;102583.31;5013123;28;20053;-40
2022/07/06 08:02:38;;;;;;;0.95;0.28;;;;;;;25.77;44.64;102590.19;5015012;28;20054;-35
2022/07/06 08:05:07;;;;;;;1.52;0.40;;;;;;;25.96;44.33;102585.50;5014649;28;20525;-38
2022/07/06 08:07:36;;;;;;;1.58;0.30;;;;;;;26.21;42.76;102585.38;5014288;28;20423;-33
2022/07/06 08:10:04;;;;;;;0.65;0.20;;;;;;;26.25;41.50;102592.88;5014328;28;20488;-42
2022/07/06 08:12:31;;;;;;;1.33;0.30;;;;;;;26.06;41.20;102590.69;5014753;28;20064;-33
2022/07/06 08:14:59;;;;;;;1.17;0.30;;;;;;;26.01;41.86;102590.94;5013589;28;20514;-32
2022/07/06 08:17:27;;;;;;;1.58;0.32;;;;;;;26.19;41.30;102582.88;5014724;28;20045;-31
2022/07/06 08:19:55;;;;;;;2.13;0.25;;;;;;;26.33;40.52;102588.22;5014234;28;20520;-38
2022/07/06 08:22:22;;;;;;;1.25;0.20;;;;;;;26.30;40.88;102580.38;5013795;28;20049;-33
2022/07/06 08:24:52;;;;;;;1.73;0.22;;;;;;;26.74;40.67;102587.75;5013943;28;20045;-36
2022/07/06 08:27:19;;;;;;;1.92;0.45;;;;;;;27.09;40.08;102592.75;5014821;28;20042;-31
2022/07/06 08:29:47;;;;;;;0.75;0.20;;;;;;;27.31;39.90;102579.78;5013614;28;20038;-39
2022/07/06 08:32:15;;;;;;;0.63;0.20;;;;;;;27.45;38.48;102586.69;5014647;28;20053;-36
2022/07/06 08:35:03;;;;;;;0.80;0.30;;;;;;;26.99;39.12;102585.53;5013382;28;21206;-33
2022/07/06 08:37:31;;;;;;;0.90;0.22;;;;;;;26.78;40.12;102579.22;5014251;28;20057;-33
2022/07/06 08:40:00;;;;;;;1.42;0.30;;;;;;;26.65;39.87;102577.66;5014235;28;20048;-32
2022/07/06 08:42:32;;;;;;;1.13;0.30;;;;;;;26.41;39.95;102572.91;5013539;28;20410;-34
2022/07/06 08:45:01;;;;;;;0.52;0.20;;;;;;;26.43;40.21;102571.34;5014028;28;20049;-32
2022/07/06 08:47:30;;;;;;;0.50;0.20;;;;;;;26.60;40.21;102575.03;4999466;28;20513;-31
2022/07/06 08:49:59;;;;;;;1.20;0.25;;;;;;;26.71;40.18;102573.31;5007648;28;20050;-32
2022/07/06 08:52:26;;;;;;;1.52;0.38;;;;;;;26.71;39.44;102565.56;5013788;28;20076;-35
2022/07/06 08:54:55;;;;;;;1.90;0.30;;;;;;;26.66;40.00;102568.69;5013711;28;20046;-40
2022/07/06 08:57:26;;;;;;;1.08;0.35;;;;;;;26.94;39.46;102577.25;5012841;28;20487;-31
2022/07/06 08:59:54;;;;;;;0.80;0.30;;;;;;;26.99;38.77;102573.25;5014052;28;20054;-36
2022/07/06 09:02:25;;;;;;;1.17;0.30;;;;;;;26.94;39.18;102568.66;5013398;28;20054;-38
2022/07/06 09:04:56;;;;;;;1.20;0.30;;;;;;;26.88;38.35;102570.09;4994516;28;20061;-32
2022/07/06 09:07:28;;;;;;;0.57;0.20;;;;;;;26.61;38.86;102571.81;5013653;28;20064;-35
2022/07/06 09:10:18;;;;;;;2.08;0.38;;;;;;;26.39;39.61;102575.28;4995914;28;20133;-40
2022/07/06 09:12:47;;;;;;;0.52;0.22;;;;;;;26.26;39.60;102571.63;5013319;28;20049;-40
2022/07/06 09:15:15;;;;;;;1.88;0.38;;;;;;;26.07;39.74;102575.19;5013457;28;20042;-31
2022/07/06 09:17:44;;;;;;;1.08;0.20;;;;;;;26.02;40.39;102566.84;5012606;28;20061;-30
2022/07/06 09:20:13;;;;;;;1.80;0.30;;;;;;;25.84;39.30;102567.50;5014004;28;20048;-30
2022/07/06 09:22:42;;;;;;;0.70;0.20;;;;;;;25.78;40.31;102571.84;5012459;28;20045;-39
2022/07/06 09:25:12;;;;;;;1.63;0.30;;;;;;;26.01;40.21;102567.22;5012550;28;20060;-36
2022/07/06 09:27:41;;;;;;;0.98;0.22;;;;;;;26.05;39.66;102571.84;5013251;28;20046;-37
2022/07/06 09:30:11;;;;;;;1.20;0.30;;;;;;;26.07;40.32;102571.50;5013295;28;20414;-37
2022/07/06 09:32:40;;;;;;;0.70;0.20;;;;;;;26.39;40.54;102575.28;5012189;28;20418;-39
2022/07/06 09:35:09;;;;;;;0.90;0.25;;;;;;;26.52;39.08;102571.19;5013379;28;20050;-32
2022/07/06 09:37:36;;;;;;;0.85;0.28;;;;;;;26.55;38.98;102575.34;5012576;28;20046;-33
2022/07/06 09:40:17;;;;;;;1.20;0.40;;;;;;;26.79;37.51;102575.16;5012707;28;20077;-34
2022/07/06 09:42:46;;;;;;;0.88;0.30;;;;;;;26.98;38.04;102572.41;5007770;28;20143;-32
2022/07/06 09:45:21;;;;;;;1.52;0.40;;;;;;;27.34;38.34;102584.78;5012965;28;20050;-30
2022/07/06 09:47:53;;;;;;;1.17;0.20;;;;;;;27.78;37.11;102580.50;5012827;28;20096;-40
2022/07/06 09:50:21;;;;;;;0.95;0.30;;;;;;;28.15;36.73;102577.22;5012552;28;20502;-39
2022/07/06 09:52:55;;;;;;;1.25;0.20;;;;;;;28.54;34.59;102582.94;5011916;28;20050;-31
2022/07/06 09:55:23;;;;;;;1.65;0.30;;;;;;;28.39;35.73;102576.06;5013205;28;20057;-30
2022/07/06 09:57:55;;;;;;;1.25;0.30;;;;;;;28.35;35.15;102573.16;5012597;28;20038;-39
2022/07/06 10:00:25;;;;;;;0.55;0.20;;;;;;;28.17;35.29;102571.09;5001425;28;20054;-31
2022/07/06 10:02:54;;;;;;;1.10;0.30;;;;;;;28.20;36.05;102574.06;5013257;28;20056;-36
2022/07/06 10:05:29;;;;;;;1.25;0.20;;;;;;;28.17;36.25;102565.34;5012937;28;20052;-33
2022/07/06 10:08:00;;;;;;;1.13;0.30;;;;;;;27.78;36.07;102560.44;5011776;28;20511;-31
2022/07/06 10:10:29;;;;;;;1.42;0.45;;;;;;;27.45;35.93;102565.78;5012754;28;20057;-35
2022/07/06 10:12:58;;;;;;;1.88;0.30;;;;;;;27.41;36.81;102570.59;5012204;28;20042;-31
2022/07/06 10:15:31;;;;;;;1.10;0.30;;;;;;;27.12;36.73;102568.25;5011635;28;20057;-40
2022/07/06 10:17:59;;;;;;;1.13;0.40;;;;;;;27.14;37.42;102574.47;5012547;28;20041;-30
2022/07/06 10:20:30;;;;;;;1.17;0.30;;;;;;;27.16;36.55;102561.41;5010657;28;20129;-31
2022/07/06 10:23:01;;;;;;;1.40;0.28;;;;;;;27.48;36.07;102570.78;5012548;28;20045;-36
2022/07/06 10:25:29;;;;;;;0.90;0.32;;;;;;;27.61;36.15;102560.03;5011878;28;20046;-31
2022/07/06 10:27:57;;;;;;;2.72;0.30;;;;;;;27.77;36.57;102567.41;5011722;28;20049;-35
2022/07/06 10:30:28;;;;;;;2.00;0.73;;;;;;;27.75;35.75;102563.25;5012377;28;20053;-37
2022/07/06 10:32:57;;;;;;;;;;;;;;;26.97;33.46;102555.63;5012654;28;20054;-34
2022/07/06 10:35:25;;;;;;;1.23;0.30;;;;;;;26.75;38.21;102554.19;5011284;28;19921;-31
2022/07/06 10:38:05;;;;;;;2.00;0.40;;;;;;;26.86;36.98;102543.84;5011995;28;20384;-31
2022/07/06 10:43:18;;;;;;;1.20;0.40;;;;;;;26.50;37.89;102533.50;5011308;28;20069;-37
2022/07/06 10:45:54;;;;;;;2.00;0.30;;;;;;;26.33;38.41;102526.09;5012017;28;20414;-31
2022/07/06 10:48:22;;;;;;;1.17;0.30;;;;;;;26.23;39.01;102523.72;4993388;28;20137;-31
2022/07/06 10:50:53;;;;;;;1.77;0.30;;;;;;;26.47;38.75;102524.78;5007456;28;20062;-34
2022/07/06 10:53:26;;;;;;;0.85;0.30;;;;;;;26.20;37.85;102526.47;5011940;28;20168;-34
2022/07/06 10:55:55;;;;;;;3.30;0.40;;;;;;;25.71;38.88;102526.69;5009966;28;20144;-39
2022/07/06 10:58:36;;;;;;;1.25;0.50;;;;;;;25.48;38.56;102528.41;5011812;28;20053;-39
2022/07/06 11:01:06;;;;;;;1.00;0.30;;;;;;;25.57;39.30;102524.22;5010694;28;20042;-35
2022/07/06 11:03:36;;;;;;;0.98;0.32;;;;;;;25.80;39.03;102532.25;5011240;28;20045;-34
2022/07/06 11:06:08;;;;;;;1.80;0.40;;;;;;;25.97;38.94;102529.09;5011732;28;20073;-43
2022/07/06 11:08:55;;;;;;;0.65;0.25;;;;;;;26.08;37.41;102531.06;5013012;28;20084;-31
2022/07/06 11:11:25;;;;;;;1.02;0.30;;;;;;;26.31;37.93;102522.75;5009607;28;20049;-32
2022/07/06 11:13:56;;;;;;;1.38;0.30;;;;;;;26.39;37.58;102527.44;5011802;28;20138;-39
2022/07/06 11:16:26;;;;;;;0.70;0.20;;;;;;;26.07;38.11;102526.53;5011464;28;20038;-36
2022/07/06 11:19:04;;;;;;;2.15;0.30;;;;;;;26.09;37.46;102515.56;5010960;28;20499;-34
2022/07/06 11:21:41;;;;;;;1.02;0.35;;;;;;;25.85;36.95;102514.84;5011570;28;20046;-32
2022/07/06 11:24:11;;;;;;;1.70;0.40;;;;;;;25.74;38.70;102508.81;5010840;28;20596;-37
2022/07/06 11:26:39;;;;;;;1.58;0.40;;;;;;;26.15;38.47;102510.41;5011299;28;20072;-36
2022/07/06 11:29:10;;;;;;;1.38;0.30;;;;;;;26.17;37.57;102519.47;5011525;28;20054;-37
2022/07/06 11:31:42;;;;;;;1.52;0.30;;;;;;;25.90;38.12;102521.13;5011602;28;20129;-35
2022/07/06 11:34:12;;;;;;;1.52;0.30;;;;;;;25.59;38.34;102523.81;5015387;28;20054;-36
2022/07/06 11:36:41;;;;;;;1.38;0.40;;;;;;;25.15;39.49;102517.97;5014964;28;20510;-32
2022/07/06 11:39:13;;;;;;;1.85;0.50;;;;;;;24.81;39.11;102521.28;5014654;28;20104;-31
2022/07/06 11:41:41;;;;;;;2.95;0.40;;;;;;;24.61;39.59;102518.16;5014797;28;20132;-39